createdAt,value
2022-09-27T00:01:13.491Z,2.43
2022-09-27T00:03:41.549Z,2.73
2022-09-27T00:06:10.539Z,2.40
2022-09-27T00:08:38.770Z,2.30
2022-09-27T00:11:09.115Z,2.63
2022-09-27T00:13:37.001Z,2.93
2022-09-27T00:16:05.802Z,2.40
2022-09-27T00:18:35.197Z,2.70
2022-09-27T00:21:07.398Z,2.53
2022-09-27T00:23:36.697Z,1.80
2022-09-27T00:26:04.665Z,2.50
2022-09-27T00:28:32.558Z,3.03
2022-09-27T00:31:00.742Z,2.60
2022-09-27T00:33:28.764Z,2.87
2022-09-27T00:36:05.339Z,2.60
2022-09-27T00:38:33.199Z,2.80
2022-09-27T00:41:01.137Z,2.77
2022-09-27T00:43:44.068Z,2.40
2022-09-27T00:46:11.958Z,2.80
2022-09-27T00:48:39.918Z,2.80
2022-09-27T00:51:09.786Z,2.23
2022-09-27T00:53:40.041Z,2.77
2022-09-27T00:56:09.713Z,2.60
2022-09-27T00:58:38.974Z,3.13
2022-09-27T01:01:10.534Z,2.93
2022-09-27T01:03:42.065Z,2.40
2022-09-27T01:06:11.309Z,1.97
2022-09-27T01:08:39.406Z,3.17
2022-09-27T01:11:14.956Z,3.30
2022-09-27T01:13:46.703Z,2.53
2022-09-27T01:16:17.887Z,2.50
2022-09-27T01:18:50.058Z,2.83
2022-09-27T01:21:51.876Z,2.73
2022-09-27T01:24:42.246Z,2.23
2022-09-27T01:27:32.671Z,2.17
2022-09-27T01:30:14.849Z,2.33
2022-09-27T01:32:46.448Z,2.33
2022-09-27T01:35:17.203Z,2.53
2022-09-27T01:37:49.888Z,2.37
2022-09-27T01:40:19.759Z,3.03
2022-09-27T01:42:48.989Z,2.77
2022-09-27T01:45:21.173Z,2.70
2022-09-27T01:47:50.919Z,2.40
2022-09-27T01:50:20.410Z,2.47
2022-09-27T01:52:50.145Z,2.57
2022-09-27T01:55:18.515Z,2.90
2022-09-27T01:57:48.558Z,2.33
2022-09-27T02:00:16.475Z,2.63
2022-09-27T02:02:48.524Z,2.47
2022-09-27T02:05:17.974Z,2.70
2022-09-27T02:07:47.374Z,3.00
2022-09-27T02:10:16.994Z,2.57
2022-09-27T02:12:47.861Z,2.70
2022-09-27T02:15:16.652Z,2.67
2022-09-27T02:17:47.925Z,2.10
2022-09-27T02:20:19.200Z,2.53
2022-09-27T02:22:49.236Z,2.20
2022-09-27T02:25:21.743Z,2.80
2022-09-27T02:27:53.951Z,2.73
2022-09-27T02:30:22.014Z,2.57
2022-09-27T02:32:51.263Z,2.60
2022-09-27T02:35:20.847Z,3.03
2022-09-27T02:37:48.728Z,2.90
2022-09-27T02:40:17.001Z,2.50
2022-09-27T02:42:44.910Z,2.20
2022-09-27T02:45:13.054Z,2.63
2022-09-27T02:47:56.988Z,2.30
2022-09-27T02:50:55.920Z,2.47
2022-09-27T02:53:30.578Z,2.53
2022-09-27T02:56:01.787Z,2.83
2022-09-27T02:58:35.760Z,3.00
2022-09-27T03:01:06.185Z,2.50
2022-09-27T03:03:38.276Z,2.80
2022-09-27T03:06:08.087Z,2.50
2022-09-27T03:08:35.947Z,2.40
2022-09-27T03:11:03.815Z,2.90
2022-09-27T03:13:31.724Z,2.63
2022-09-27T03:16:01.720Z,2.33
2022-09-27T03:18:30.147Z,2.40
2022-09-27T03:20:59.415Z,2.80
2022-09-27T03:23:27.561Z,3.00
2022-09-27T03:25:55.431Z,2.70
2022-09-27T03:28:23.357Z,2.30
2022-09-27T03:30:51.285Z,2.80
2022-09-27T03:33:19.635Z,2.67
2022-09-27T03:35:48.028Z,2.93
2022-09-27T03:38:17.334Z,2.83
2022-09-27T03:40:45.186Z,3.07
2022-09-27T03:43:13.108Z,2.70
2022-09-27T03:45:41.419Z,2.47
2022-09-27T03:48:09.365Z,3.47
2022-09-27T03:50:37.311Z,3.33
2022-09-27T03:53:05.179Z,2.60
2022-09-27T03:55:34.646Z,2.73
2022-09-27T03:58:02.564Z,2.90
2022-09-27T04:00:32.669Z,2.90
2022-09-27T04:03:00.564Z,2.77
2022-09-27T04:05:28.969Z,3.60
2022-09-27T04:07:57.249Z,3.73
2022-09-27T04:10:25.508Z,3.67
2022-09-27T04:12:54.869Z,3.03
2022-09-27T04:15:22.861Z,3.60
2022-09-27T04:17:50.744Z,3.53
2022-09-27T04:20:18.799Z,3.57
2022-09-27T04:22:46.670Z,3.10
2022-09-27T04:25:14.716Z,3.77
2022-09-27T04:27:45.759Z,4.03
2022-09-27T04:30:15.457Z,4.00
2022-09-27T04:32:43.455Z,3.90
2022-09-27T04:35:28.614Z,3.27
2022-09-27T04:37:56.695Z,3.00
2022-09-27T04:40:24.723Z,3.40
2022-09-27T04:42:52.839Z,2.73
2022-09-27T04:45:22.205Z,3.33
2022-09-27T04:47:50.905Z,3.17
2022-09-27T04:50:20.132Z,3.93
2022-09-27T04:52:51.361Z,3.37
2022-09-27T04:55:19.413Z,3.73
2022-09-27T04:57:47.287Z,3.90
2022-09-27T05:00:15.949Z,3.10
2022-09-27T05:02:45.398Z,4.57
2022-09-27T05:05:13.445Z,4.43
2022-09-27T05:07:41.860Z,3.93
2022-09-27T05:10:10.313Z,4.37
2022-09-27T05:12:38.291Z,3.97
2022-09-27T05:15:07.097Z,3.93
2022-09-27T05:17:34.973Z,3.87
2022-09-27T05:20:04.480Z,5.23
2022-09-27T05:22:32.370Z,3.67
2022-09-27T05:25:00.254Z,3.90
2022-09-27T05:27:28.155Z,4.10
2022-09-27T05:29:57.060Z,3.30
2022-09-27T05:32:24.944Z,3.67
2022-09-27T05:34:53.677Z,3.63
2022-09-27T05:37:22.976Z,3.43
2022-09-27T05:39:51.033Z,3.77
2022-09-27T05:42:19.652Z,3.67
2022-09-27T05:44:47.651Z,4.40
2022-09-27T05:47:15.744Z,4.33
2022-09-27T05:49:43.687Z,4.13
2022-09-27T05:52:15.090Z,4.47
2022-09-27T05:54:46.130Z,3.77
2022-09-27T05:57:14.616Z,4.20
2022-09-27T05:59:42.617Z,4.67
2022-09-27T06:02:11.546Z,4.07
2022-09-27T06:04:39.589Z,4.53
2022-09-27T06:07:07.477Z,4.47
2022-09-27T06:09:35.497Z,4.43
2022-09-27T06:12:05.137Z,3.77
2022-09-27T06:14:35.082Z,4.07
2022-09-27T06:17:03.670Z,4.87
2022-09-27T06:19:31.971Z,4.60
2022-09-27T06:21:59.869Z,3.87
2022-09-27T06:24:27.741Z,3.80
2022-09-27T06:26:55.721Z,3.17
2022-09-27T06:29:25.297Z,4.87
2022-09-27T06:31:53.179Z,4.63
2022-09-27T06:34:21.141Z,3.70
2022-09-27T06:36:51.710Z,4.20
2022-09-27T06:39:19.838Z,3.43
2022-09-27T06:41:48.291Z,4.27
2022-09-27T06:44:16.201Z,4.60
2022-09-27T06:46:45.905Z,3.33
2022-09-27T06:49:13.905Z,3.70
2022-09-27T06:51:42.267Z,3.77
2022-09-27T06:54:10.239Z,4.00
2022-09-27T06:56:38.134Z,4.37
2022-09-27T06:59:23.357Z,4.73
2022-09-27T07:01:53.657Z,4.30
2022-09-27T07:04:21.766Z,3.57
2022-09-27T07:06:49.732Z,4.77
2022-09-27T07:09:17.747Z,4.87
2022-09-27T07:11:46.061Z,4.00
2022-09-27T07:14:14.338Z,4.10
2022-09-27T07:16:42.237Z,3.57
2022-09-27T07:19:13.590Z,4.50
2022-09-27T07:21:41.545Z,3.93
2022-09-27T07:24:09.658Z,4.50
2022-09-27T07:26:37.541Z,3.63
2022-09-27T07:29:05.420Z,3.57
2022-09-27T07:31:33.933Z,4.17
2022-09-27T07:34:01.886Z,3.33
2022-09-27T07:36:31.608Z,3.83
2022-09-27T07:39:00.612Z,3.93
2022-09-27T07:41:28.645Z,4.17
2022-09-27T07:43:57.308Z,3.50
2022-09-27T07:46:26.055Z,4.27
2022-09-27T07:48:54.299Z,3.53
2022-09-27T07:51:22.865Z,3.87
2022-09-27T07:53:52.475Z,3.47
2022-09-27T07:56:20.564Z,4.30
2022-09-27T07:58:48.489Z,4.00
2022-09-27T08:01:16.522Z,4.00
2022-09-27T08:03:44.636Z,3.60
2022-09-27T08:06:12.565Z,3.13
2022-09-27T08:08:40.594Z,3.90
2022-09-27T08:11:16.713Z,3.90
2022-09-27T08:13:44.670Z,3.80
2022-09-27T08:16:14.337Z,4.07
2022-09-27T08:18:43.102Z,3.73
2022-09-27T08:21:11.143Z,3.77
2022-09-27T08:23:39.214Z,3.93
2022-09-27T08:26:07.331Z,4.37
2022-09-27T08:28:37.816Z,3.90
2022-09-27T08:31:06.168Z,4.03
2022-09-27T08:33:39.114Z,3.30
2022-09-27T08:36:12.127Z,3.53
2022-09-27T08:38:40.133Z,4.37
2022-09-27T08:41:08.998Z,2.90
2022-09-27T08:43:42.712Z,4.07
2022-09-27T08:46:17.233Z,3.70
2022-09-27T08:48:45.311Z,3.87
2022-09-27T08:51:13.641Z,4.87
2022-09-27T08:53:43.049Z,3.37
2022-09-27T08:56:11.161Z,4.10
2022-09-27T08:58:42.076Z,3.80
2022-09-27T09:01:12.989Z,3.77
2022-09-27T09:03:41.435Z,4.50
2022-09-27T09:06:12.826Z,3.70
2022-09-27T09:08:50.721Z,4.37
2022-09-27T09:11:42.198Z,3.50
2022-09-27T09:14:27.510Z,3.33
2022-09-27T09:17:00.635Z,3.87
2022-09-27T09:19:45.975Z,3.47
2022-09-27T09:22:21.915Z,3.30
2022-09-27T09:24:56.824Z,4.37
2022-09-27T09:27:26.617Z,4.40
2022-09-27T09:30:07.104Z,4.07
2022-09-27T09:32:40.332Z,4.00
2022-09-27T09:35:08.922Z,4.43
2022-09-27T09:37:38.207Z,3.60
2022-09-27T09:40:09.270Z,4.30
2022-09-27T09:42:39.672Z,3.83
2022-09-27T09:45:16.161Z,3.97
2022-09-27T09:47:45.546Z,4.83
2022-09-27T09:50:17.471Z,4.77
2022-09-27T09:52:46.922Z,4.07
2022-09-27T09:55:19.211Z,4.67
2022-09-27T09:58:02.469Z,4.03
2022-09-27T10:00:31.816Z,3.93
2022-09-27T10:03:00.527Z,3.60
2022-09-27T10:05:28.864Z,3.70
2022-09-27T10:07:58.764Z,3.30
2022-09-27T10:10:26.731Z,3.37
2022-09-27T10:12:54.705Z,3.10
2022-09-27T10:15:23.525Z,3.93
2022-09-27T10:17:54.052Z,3.67
2022-09-27T10:20:27.402Z,3.50
2022-09-27T10:22:56.676Z,4.37
2022-09-27T10:25:24.873Z,3.73
2022-09-27T10:27:54.324Z,3.77
2022-09-27T10:30:27.681Z,3.70
2022-09-27T10:32:59.032Z,3.90
2022-09-27T10:35:36.849Z,3.80
2022-09-27T10:38:25.322Z,3.60
2022-09-27T10:40:55.565Z,3.30
2022-09-27T10:43:29.659Z,4.10
2022-09-27T10:46:02.969Z,2.67
2022-09-27T10:48:32.383Z,3.90
2022-09-27T10:51:01.226Z,3.40
2022-09-27T10:53:29.173Z,3.63
2022-09-27T10:55:57.774Z,3.80
2022-09-27T10:58:28.245Z,3.80
2022-09-27T11:00:57.794Z,4.00
2022-09-27T11:03:28.998Z,3.93
2022-09-27T11:05:59.571Z,4.17
2022-09-27T11:08:32.159Z,4.00
2022-09-27T11:11:07.846Z,4.43
2022-09-27T11:13:36.131Z,4.00
2022-09-27T11:16:27.226Z,4.47
2022-09-27T11:19:01.176Z,4.90
2022-09-27T11:21:35.220Z,3.53
2022-09-27T11:24:10.967Z,4.27
2022-09-27T11:26:45.401Z,3.73
2022-09-27T11:29:21.905Z,4.43
2022-09-27T11:31:55.078Z,4.60
2022-09-27T11:34:36.515Z,4.27
2022-09-27T11:37:11.517Z,4.03
2022-09-27T11:39:44.469Z,2.90
2022-09-27T11:42:24.663Z,3.47
2022-09-27T11:45:27.791Z,3.47
2022-09-27T11:47:51.600Z,3.93
2022-09-27T11:50:33.924Z,3.53
2022-09-27T11:53:11.492Z,3.50
2022-09-27T11:55:46.214Z,4.20
2022-09-27T11:58:18.885Z,3.70
2022-09-27T12:00:55.305Z,3.40
2022-09-27T12:03:56.520Z,4.10
2022-09-27T12:06:26.711Z,3.93
2022-09-27T12:09:02.829Z,3.83
2022-09-27T12:11:32.518Z,3.53
2022-09-27T12:14:01.136Z,3.10
2022-09-27T12:16:30.154Z,2.50
2022-09-27T12:18:58.807Z,2.53
2022-09-27T12:21:26.649Z,2.87
2022-09-27T12:23:55.425Z,3.00
2022-09-27T12:26:27.012Z,2.77
2022-09-27T12:28:56.951Z,2.90
2022-09-27T12:31:29.716Z,2.87
2022-09-27T12:34:02.891Z,2.60
2022-09-27T12:36:38.394Z,2.87
2022-09-27T12:39:12.172Z,2.73
2022-09-27T12:41:44.016Z,3.10
2022-09-27T12:44:12.112Z,2.60
2022-09-27T12:46:45.686Z,2.83
2022-09-27T12:49:15.748Z,2.50
2022-09-27T12:51:46.170Z,2.90
2022-09-27T12:54:31.542Z,3.27
2022-09-27T12:57:04.291Z,2.90
2022-09-27T12:59:41.675Z,3.17
2022-09-27T13:02:21.719Z,2.93
2022-09-27T13:05:00.419Z,2.87
2022-09-27T13:07:35.869Z,3.00
2022-09-27T13:10:17.346Z,2.87
2022-09-27T13:12:50.187Z,2.70
2022-09-27T13:15:29.027Z,3.53
2022-09-27T13:17:58.347Z,2.97
2022-09-27T13:20:53.268Z,3.43
2022-09-27T13:24:00.817Z,3.20
2022-09-27T13:26:50.862Z,3.10
2022-09-27T13:29:30.361Z,2.77
2022-09-27T13:32:22.608Z,3.10
2022-09-27T13:34:51.985Z,3.43
2022-09-27T13:37:45.608Z,3.00
2022-09-27T13:40:24.263Z,3.10
2022-09-27T13:43:06.684Z,3.60
2022-09-27T13:45:37.836Z,3.03
2022-09-27T13:48:10.097Z,3.47
2022-09-27T13:50:40.340Z,2.90
2022-09-27T13:53:09.406Z,3.73
2022-09-27T13:55:45.681Z,3.53
2022-09-27T13:58:34.478Z,3.10
2022-09-27T14:01:05.363Z,3.83
2022-09-27T14:03:35.660Z,3.53
2022-09-27T14:06:08.608Z,3.73
2022-09-27T14:08:40.058Z,4.23
2022-09-27T14:11:12.337Z,4.73
2022-09-27T14:13:40.426Z,4.20
2022-09-27T14:16:11.014Z,4.60
2022-09-27T14:18:44.730Z,3.87
2022-09-27T14:21:18.645Z,3.97
2022-09-27T14:23:46.656Z,3.33
2022-09-27T14:26:25.985Z,3.67
2022-09-27T14:28:53.987Z,3.37
2022-09-27T14:31:24.422Z,3.57
2022-09-27T14:33:52.546Z,3.70
2022-09-27T14:36:44.033Z,3.20
2022-09-27T14:39:23.006Z,3.23
2022-09-27T14:41:51.018Z,4.50
2022-09-27T14:44:19.543Z,3.20
2022-09-27T14:46:48.995Z,3.03
2022-09-27T14:49:22.289Z,2.53
2022-09-27T14:51:52.471Z,3.10
2022-09-27T14:54:22.252Z,2.80
2022-09-27T14:56:53.623Z,3.33
2022-09-27T14:59:27.186Z,3.37
2022-09-27T15:01:56.481Z,2.90
2022-09-27T15:04:24.677Z,3.00
2022-09-27T15:06:52.712Z,2.70
2022-09-27T15:09:20.673Z,3.57
2022-09-27T15:11:51.659Z,3.60
2022-09-27T15:14:20.392Z,3.00
2022-09-27T15:16:48.516Z,2.90
2022-09-27T15:19:18.964Z,3.63
2022-09-27T15:21:47.087Z,2.70
2022-09-27T15:24:40.600Z,3.37
2022-09-27T15:27:15.050Z,3.63
2022-09-27T15:29:43.176Z,3.13
2022-09-27T15:32:15.769Z,3.50
2022-09-27T15:34:45.127Z,2.63
2022-09-27T15:37:26.134Z,2.33
2022-09-27T15:39:54.089Z,2.20
2022-09-27T15:42:22.082Z,2.50
2022-09-27T15:44:50.555Z,2.37
2022-09-27T15:47:58.366Z,2.40
2022-09-27T15:50:38.619Z,3.13
2022-09-27T15:53:07.071Z,3.03
2022-09-27T15:55:37.213Z,2.93
2022-09-27T15:58:07.725Z,2.27
2022-09-27T16:00:36.070Z,2.33
2022-09-27T16:03:04.195Z,2.20
2022-09-27T16:05:33.304Z,2.30
2022-09-27T16:08:02.958Z,2.07
2022-09-27T16:10:33.873Z,3.10
2022-09-27T16:13:01.857Z,2.53
2022-09-27T16:15:29.817Z,2.43
2022-09-27T16:17:57.895Z,1.90
2022-09-27T16:20:27.185Z,2.57
2022-09-27T16:22:55.521Z,2.63
2022-09-27T16:25:24.882Z,2.57
2022-09-27T16:27:53.753Z,2.37
2022-09-27T16:30:21.801Z,2.23
2022-09-27T16:32:49.761Z,2.73
2022-09-27T16:35:18.885Z,1.80
2022-09-27T16:37:46.975Z,2.33
2022-09-27T16:40:15.375Z,2.17
2022-09-27T16:42:44.786Z,2.60
2022-09-27T16:45:18.234Z,2.10
2022-09-27T16:47:46.974Z,2.20
2022-09-27T16:50:32.304Z,2.37
2022-09-27T16:53:00.399Z,2.03
2022-09-27T16:55:28.854Z,2.60
2022-09-27T16:58:00.734Z,2.27
2022-09-27T17:00:28.954Z,2.50
2022-09-27T17:02:56.888Z,2.80
2022-09-27T17:05:25.290Z,2.10
2022-09-27T17:07:53.351Z,2.73
2022-09-27T17:10:21.262Z,2.43
2022-09-27T17:12:49.374Z,1.87
2022-09-27T17:15:18.765Z,2.10
2022-09-27T17:17:50.061Z,1.90
2022-09-27T17:20:18.206Z,2.10
2022-09-27T17:22:46.139Z,1.87
2022-09-27T17:25:14.071Z,2.20
2022-09-27T17:27:42.008Z,2.17
2022-09-27T17:30:10.889Z,2.80
2022-09-27T17:32:40.297Z,2.37
2022-09-27T17:35:09.430Z,2.80
2022-09-27T17:37:37.376Z,2.93
2022-09-27T17:40:06.020Z,2.10
2022-09-27T17:42:34.440Z,2.67
2022-09-27T17:45:02.367Z,2.40
2022-09-27T17:47:47.774Z,2.53
2022-09-27T17:50:27.165Z,2.23
2022-09-27T17:52:55.100Z,2.83
2022-09-27T17:55:23.058Z,2.43
2022-09-27T17:57:51.409Z,1.87
2022-09-27T18:00:20.320Z,1.90
2022-09-27T18:02:48.919Z,2.03
2022-09-27T18:05:21.306Z,1.83
2022-09-27T18:07:50.006Z,2.30
2022-09-27T18:10:18.736Z,1.97
2022-09-27T18:12:47.496Z,1.77
2022-09-27T18:15:17.054Z,2.10
2022-09-27T18:17:45.881Z,1.83
2022-09-27T18:20:13.820Z,2.13
2022-09-27T18:22:43.089Z,2.43
2022-09-27T18:25:12.034Z,2.30
2022-09-27T18:27:40.433Z,2.37
2022-09-27T18:30:09.741Z,3.03
2022-09-27T18:32:37.612Z,2.63
2022-09-27T18:35:07.002Z,2.67
2022-09-27T18:37:35.032Z,2.10
2022-09-27T18:40:04.578Z,2.00
2022-09-27T18:42:32.546Z,2.23
2022-09-27T18:45:00.454Z,1.60
2022-09-27T18:47:28.435Z,1.87
2022-09-27T18:49:56.383Z,1.77
2022-09-27T18:52:24.363Z,2.23
2022-09-27T18:54:52.303Z,1.93
2022-09-27T18:57:22.954Z,2.03
2022-09-27T18:59:50.850Z,1.93
2022-09-27T19:02:19.532Z,2.27
2022-09-27T19:04:47.542Z,2.33
2022-09-27T19:07:15.510Z,1.93
2022-09-27T19:09:43.436Z,2.47
2022-09-27T19:12:11.509Z,2.60
2022-09-27T19:14:41.172Z,2.70
2022-09-27T19:17:09.146Z,3.13
2022-09-27T19:19:37.093Z,2.93
2022-09-27T19:22:05.663Z,2.90
2022-09-27T19:24:33.543Z,2.67
2022-09-27T19:27:01.544Z,3.10
2022-09-27T19:29:29.594Z,3.03
2022-09-27T19:31:58.883Z,2.80
2022-09-27T19:34:26.976Z,2.43
2022-09-27T19:36:55.384Z,3.03
2022-09-27T19:39:23.309Z,2.67
2022-09-27T19:41:51.341Z,2.97
2022-09-27T19:44:19.304Z,3.67
2022-09-27T19:46:47.334Z,4.13
2022-09-27T19:49:18.889Z,3.90
2022-09-27T19:51:46.942Z,2.97
2022-09-27T19:54:15.113Z,3.07
2022-09-27T19:56:43.093Z,2.43
2022-09-27T19:59:11.909Z,2.93
2022-09-27T20:01:41.333Z,2.40
2022-09-27T20:04:09.339Z,2.80
2022-09-27T20:06:38.656Z,2.70
2022-09-27T20:09:06.607Z,2.47
2022-09-27T20:11:34.848Z,2.63
2022-09-27T20:14:02.805Z,2.47
2022-09-27T20:16:30.799Z,2.30
2022-09-27T20:19:00.037Z,2.53
2022-09-27T20:21:28.840Z,2.57
2022-09-27T20:23:58.348Z,2.17
2022-09-27T20:26:27.160Z,2.97
2022-09-27T20:28:56.995Z,2.40
2022-09-27T20:31:25.865Z,2.70
2022-09-27T20:33:53.817Z,2.60
2022-09-27T20:36:22.930Z,2.47
2022-09-27T20:38:51.671Z,2.47
2022-09-27T20:41:21.778Z,2.73
2022-09-27T20:43:49.860Z,2.60
2022-09-27T20:46:18.634Z,2.50
2022-09-27T20:48:47.084Z,2.80
2022-09-27T20:51:15.319Z,2.53
2022-09-27T20:53:43.274Z,2.20
2022-09-27T20:56:17.053Z,1.90
2022-09-27T20:58:46.365Z,2.30
2022-09-27T21:01:14.387Z,2.83
2022-09-27T21:03:42.321Z,2.20
2022-09-27T21:06:10.266Z,2.43
2022-09-27T21:08:38.177Z,2.53
2022-09-27T21:11:08.268Z,2.20
2022-09-27T21:13:36.464Z,2.10
2022-09-27T21:16:06.226Z,1.93
2022-09-27T21:18:34.240Z,2.47
2022-09-27T21:21:03.732Z,2.10
2022-09-27T21:23:31.766Z,2.30
2022-09-27T21:26:04.770Z,2.10
2022-09-27T21:28:34.397Z,2.00
2022-09-27T21:31:08.483Z,2.30
2022-09-27T21:33:36.489Z,2.20
2022-09-27T21:36:04.747Z,2.10
2022-09-27T21:38:32.753Z,2.47
2022-09-27T21:41:01.853Z,2.33
2022-09-27T21:43:30.685Z,2.10
2022-09-27T21:46:07.132Z,2.20
2022-09-27T21:48:35.236Z,1.80
2022-09-27T21:51:05.494Z,2.10
2022-09-27T21:53:33.667Z,1.77
2022-09-27T21:56:01.969Z,1.80
2022-09-27T21:58:29.944Z,2.50
2022-09-27T22:00:57.858Z,2.20
2022-09-27T22:03:27.216Z,2.13
2022-09-27T22:05:55.140Z,1.90
2022-09-27T22:08:24.150Z,1.83
2022-09-27T22:10:52.147Z,2.30
2022-09-27T22:13:20.027Z,1.70
2022-09-27T22:15:50.431Z,2.30
2022-09-27T22:18:18.439Z,2.10
2022-09-27T22:20:47.799Z,1.83
2022-09-27T22:23:15.731Z,2.10
2022-09-27T22:25:43.666Z,2.00
2022-09-27T22:28:11.593Z,2.30
2022-09-27T22:30:39.538Z,2.60
2022-09-27T22:33:07.686Z,2.27
2022-09-27T22:35:35.579Z,2.30
2022-09-27T22:38:04.881Z,2.00
2022-09-27T22:40:32.809Z,2.03
2022-09-27T22:43:00.717Z,2.07
2022-09-27T22:45:28.648Z,1.70
2022-09-27T22:47:56.658Z,1.60
2022-09-27T22:50:24.691Z,2.40
2022-09-27T22:52:52.567Z,2.10
2022-09-27T22:55:21.824Z,2.17
2022-09-27T22:57:49.704Z,2.00
2022-09-27T23:00:17.644Z,1.70
2022-09-27T23:02:46.028Z,1.97
2022-09-27T23:05:13.937Z,2.20
2022-09-27T23:07:41.903Z,1.90
2022-09-27T23:10:10.227Z,1.97
2022-09-27T23:12:39.528Z,1.93
2022-09-27T23:15:08.828Z,2.40
2022-09-27T23:17:36.711Z,2.00
2022-09-27T23:20:05.020Z,1.90
2022-09-27T23:22:33.405Z,2.30
2022-09-27T23:25:01.918Z,1.57
2022-09-27T23:27:45.275Z,2.20
2022-09-27T23:30:15.231Z,1.80
2022-09-27T23:32:44.828Z,2.20
2022-09-27T23:35:12.814Z,2.00
2022-09-27T23:37:40.744Z,2.00
2022-09-27T23:40:09.988Z,2.20
2022-09-27T23:42:37.865Z,2.07
2022-09-27T23:45:06.626Z,1.67
2022-09-27T23:47:35.859Z,1.83
2022-09-27T23:50:03.841Z,1.53
2022-09-27T23:52:31.756Z,1.63
2022-09-27T23:54:59.723Z,1.70
2022-09-27T23:57:27.705Z,1.60
2022-09-27T23:59:55.598Z,2.37
